sensor_id;sensor_type;location;lat;lon;timestamp;temperature;humidity
28823;DHT22;15961;54.678;9.110;2022-08-19T00:01:53;16.30;99.90
28823;DHT22;15961;54.678;9.110;2022-08-19T00:04:24;16.20;99.90
28823;DHT22;15961;54.678;9.110;2022-08-19T00:06:50;16.20;99.90
28823;DHT22;15961;54.678;9.110;2022-08-19T00:09:16;16.10;99.90
28823;DHT22;15961;54.678;9.110;2022-08-19T00:11:43;16.10;99.90
28823;DHT22;15961;54.678;9.110;2022-08-19T00:14:09;16.00;99.90
28823;DHT22;15961;54.678;9.110;2022-08-19T00:16:36;16.00;99.90
28823;DHT22;15961;54.678;9.110;2022-08-19T00:19:02;16.00;99.90
28823;DHT22;15961;54.678;9.110;2022-08-19T00:21:27;15.90;99.90
28823;DHT22;15961;54.678;9.110;2022-08-19T00:23:53;15.90;99.90
28823;DHT22;15961;54.678;9.110;2022-08-19T00:26:19;15.90;99.90
28823;DHT22;15961;54.678;9.110;2022-08-19T00:28:44;16.00;99.90
28823;DHT22;15961;54.678;9.110;2022-08-19T00:31:10;16.00;99.90
28823;DHT22;15961;54.678;9.110;2022-08-19T00:33:36;16.00;99.90
28823;DHT22;15961;54.678;9.110;2022-08-19T00:36:03;16.00;99.90
28823;DHT22;15961;54.678;9.110;2022-08-19T00:38:30;16.00;99.90
28823;DHT22;15961;54.678;9.110;2022-08-19T00:40:55;16.00;99.90
28823;DHT22;15961;54.678;9.110;2022-08-19T00:43:22;16.00;99.90
28823;DHT22;15961;54.678;9.110;2022-08-19T00:45:48;16.00;99.90
28823;DHT22;15961;54.678;9.110;2022-08-19T00:48:15;16.10;99.90
28823;DHT22;15961;54.678;9.110;2022-08-19T00:50:41;16.10;99.90
28823;DHT22;15961;54.678;9.110;2022-08-19T00:53:09;16.10;99.90
28823;DHT22;15961;54.678;9.110;2022-08-19T00:55:34;16.10;99.90
28823;DHT22;15961;54.678;9.110;2022-08-19T00:58:04;16.10;99.90
28823;DHT22;15961;54.678;9.110;2022-08-19T01:00:32;16.10;99.90
28823;DHT22;15961;54.678;9.110;2022-08-19T01:03:00;16.10;99.90
28823;DHT22;15961;54.678;9.110;2022-08-19T01:05:26;16.10;99.90
28823;DHT22;15961;54.678;9.110;2022-08-19T01:07:53;16.20;99.90
28823;DHT22;15961;54.678;9.110;2022-08-19T01:10:20;16.20;99.90
28823;DHT22;15961;54.678;9.110;2022-08-19T01:12:47;16.20;99.90
28823;DHT22;15961;54.678;9.110;2022-08-19T01:15:15;16.20;99.90
28823;DHT22;15961;54.678;9.110;2022-08-19T01:17:41;16.10;99.90
28823;DHT22;15961;54.678;9.110;2022-08-19T01:20:09;16.20;99.90
28823;DHT22;15961;54.678;9.110;2022-08-19T01:22:36;16.10;99.90
28823;DHT22;15961;54.678;9.110;2022-08-19T01:25:05;16.20;99.90
28823;DHT22;15961;54.678;9.110;2022-08-19T01:27:38;16.20;99.90
28823;DHT22;15961;54.678;9.110;2022-08-19T01:30:04;16.20;99.90
28823;DHT22;15961;54.678;9.110;2022-08-19T01:32:30;16.20;99.90
28823;DHT22;15961;54.678;9.110;2022-08-19T01:34:56;16.20;99.90
28823;DHT22;15961;54.678;9.110;2022-08-19T01:37:21;16.30;99.90
28823;DHT22;15961;54.678;9.110;2022-08-19T01:39:47;16.20;99.90
28823;DHT22;15961;54.678;9.110;2022-08-19T01:42:13;16.30;99.90
28823;DHT22;15961;54.678;9.110;2022-08-19T01:44:39;16.30;99.90
28823;DHT22;15961;54.678;9.110;2022-08-19T01:47:06;16.30;99.90
28823;DHT22;15961;54.678;9.110;2022-08-19T01:49:31;16.30;99.90
28823;DHT22;15961;54.678;9.110;2022-08-19T01:51:58;16.30;99.90
28823;DHT22;15961;54.678;9.110;2022-08-19T01:54:24;16.30;99.90
28823;DHT22;15961;54.678;9.110;2022-08-19T01:56:50;16.30;99.90
28823;DHT22;15961;54.678;9.110;2022-08-19T01:59:17;16.30;99.90
28823;DHT22;15961;54.678;9.110;2022-08-19T02:01:43;16.40;99.90
28823;DHT22;15961;54.678;9.110;2022-08-19T02:04:09;16.30;99.90
28823;DHT22;15961;54.678;9.110;2022-08-19T02:06:35;16.30;99.90
28823;DHT22;15961;54.678;9.110;2022-08-19T02:09:00;16.40;99.90
28823;DHT22;15961;54.678;9.110;2022-08-19T02:11:27;16.50;99.90
28823;DHT22;15961;54.678;9.110;2022-08-19T02:13:53;16.50;99.90
28823;DHT22;15961;54.678;9.110;2022-08-19T02:16:19;16.50;99.90
28823;DHT22;15961;54.678;9.110;2022-08-19T02:18:45;16.50;99.90
28823;DHT22;15961;54.678;9.110;2022-08-19T02:21:12;16.40;99.90
28823;DHT22;15961;54.678;9.110;2022-08-19T02:23:38;16.40;99.90
28823;DHT22;15961;54.678;9.110;2022-08-19T02:26:03;16.50;99.90
28823;DHT22;15961;54.678;9.110;2022-08-19T02:28:29;16.50;99.90
28823;DHT22;15961;54.678;9.110;2022-08-19T02:30:54;16.50;99.90
28823;DHT22;15961;54.678;9.110;2022-08-19T02:33:20;16.50;99.90
28823;DHT22;15961;54.678;9.110;2022-08-19T02:35:46;16.50;99.90
28823;DHT22;15961;54.678;9.110;2022-08-19T02:38:11;16.60;99.90
28823;DHT22;15961;54.678;9.110;2022-08-19T02:40:55;16.70;99.90
28823;DHT22;15961;54.678;9.110;2022-08-19T02:43:21;16.70;99.90
28823;DHT22;15961;54.678;9.110;2022-08-19T02:45:46;16.70;99.90
28823;DHT22;15961;54.678;9.110;2022-08-19T02:48:14;16.70;99.90
28823;DHT22;15961;54.678;9.110;2022-08-19T02:50:42;16.60;99.90
28823;DHT22;15961;54.678;9.110;2022-08-19T02:53:08;16.60;99.90
28823;DHT22;15961;54.678;9.110;2022-08-19T02:55:34;16.60;99.90
28823;DHT22;15961;54.678;9.110;2022-08-19T02:57:59;16.60;99.90
28823;DHT22;15961;54.678;9.110;2022-08-19T03:00:25;16.60;99.90
28823;DHT22;15961;54.678;9.110;2022-08-19T03:02:51;16.60;99.90
28823;DHT22;15961;54.678;9.110;2022-08-19T03:05:17;16.60;99.90
28823;DHT22;15961;54.678;9.110;2022-08-19T03:07:43;16.70;99.90
28823;DHT22;15961;54.678;9.110;2022-08-19T03:10:08;16.60;99.90
28823;DHT22;15961;54.678;9.110;2022-08-19T03:12:37;16.50;99.90
28823;DHT22;15961;54.678;9.110;2022-08-19T03:15:04;16.50;99.90
28823;DHT22;15961;54.678;9.110;2022-08-19T03:17:30;16.40;99.90
28823;DHT22;15961;54.678;9.110;2022-08-19T03:19:56;16.40;99.90
28823;DHT22;15961;54.678;9.110;2022-08-19T03:22:21;16.40;99.90
28823;DHT22;15961;54.678;9.110;2022-08-19T03:24:47;16.40;99.90
28823;DHT22;15961;54.678;9.110;2022-08-19T03:27:12;16.30;99.90
28823;DHT22;15961;54.678;9.110;2022-08-19T03:29:39;16.40;99.90
28823;DHT22;15961;54.678;9.110;2022-08-19T03:32:05;16.50;99.90
28823;DHT22;15961;54.678;9.110;2022-08-19T03:34:32;16.50;99.90
28823;DHT22;15961;54.678;9.110;2022-08-19T03:36:58;16.50;99.90
28823;DHT22;15961;54.678;9.110;2022-08-19T03:39:26;16.50;99.90
28823;DHT22;15961;54.678;9.110;2022-08-19T03:41:52;16.40;99.90
28823;DHT22;15961;54.678;9.110;2022-08-19T03:44:19;16.30;99.90
28823;DHT22;15961;54.678;9.110;2022-08-19T03:46:46;16.40;99.90
28823;DHT22;15961;54.678;9.110;2022-08-19T03:49:12;16.40;99.90
28823;DHT22;15961;54.678;9.110;2022-08-19T03:51:38;16.30;99.90
28823;DHT22;15961;54.678;9.110;2022-08-19T03:54:05;16.40;99.90
28823;DHT22;15961;54.678;9.110;2022-08-19T03:56:30;16.40;99.90
28823;DHT22;15961;54.678;9.110;2022-08-19T03:58:56;16.40;99.90
28823;DHT22;15961;54.678;9.110;2022-08-19T04:01:23;16.40;99.90
28823;DHT22;15961;54.678;9.110;2022-08-19T04:03:49;16.40;99.90
28823;DHT22;15961;54.678;9.110;2022-08-19T04:06:48;16.40;99.90
28823;DHT22;15961;54.678;9.110;2022-08-19T04:09:07;16.40;99.90
28823;DHT22;15961;54.678;9.110;2022-08-19T04:11:35;16.50;99.90
28823;DHT22;15961;54.678;9.110;2022-08-19T04:14:01;16.50;99.90
28823;DHT22;15961;54.678;9.110;2022-08-19T04:16:26;16.40;99.90
28823;DHT22;15961;54.678;9.110;2022-08-19T04:18:54;16.50;99.90
28823;DHT22;15961;54.678;9.110;2022-08-19T04:21:21;16.50;99.90
28823;DHT22;15961;54.678;9.110;2022-08-19T04:23:47;16.50;99.90
28823;DHT22;15961;54.678;9.110;2022-08-19T04:26:22;16.50;99.90
28823;DHT22;15961;54.678;9.110;2022-08-19T04:28:48;16.60;99.90
28823;DHT22;15961;54.678;9.110;2022-08-19T04:31:19;16.60;99.90
28823;DHT22;15961;54.678;9.110;2022-08-19T04:33:45;16.60;99.90
28823;DHT22;15961;54.678;9.110;2022-08-19T04:36:17;16.70;99.90
28823;DHT22;15961;54.678;9.110;2022-08-19T04:38:46;16.70;99.90
28823;DHT22;15961;54.678;9.110;2022-08-19T04:41:12;16.70;99.90
28823;DHT22;15961;54.678;9.110;2022-08-19T04:43:56;16.70;99.90
28823;DHT22;15961;54.678;9.110;2022-08-19T04:46:22;16.60;99.90
28823;DHT22;15961;54.678;9.110;2022-08-19T04:48:47;16.70;99.90
28823;DHT22;15961;54.678;9.110;2022-08-19T04:51:13;16.70;99.90
28823;DHT22;15961;54.678;9.110;2022-08-19T04:53:39;16.60;99.90
28823;DHT22;15961;54.678;9.110;2022-08-19T04:56:06;16.60;99.90
28823;DHT22;15961;54.678;9.110;2022-08-19T04:58:32;16.60;99.90
28823;DHT22;15961;54.678;9.110;2022-08-19T05:00:58;16.60;99.90
28823;DHT22;15961;54.678;9.110;2022-08-19T05:03:25;16.70;99.90
28823;DHT22;15961;54.678;9.110;2022-08-19T05:05:51;16.70;99.90
28823;DHT22;15961;54.678;9.110;2022-08-19T05:08:20;16.70;99.90
28823;DHT22;15961;54.678;9.110;2022-08-19T05:10:50;16.80;99.90
28823;DHT22;15961;54.678;9.110;2022-08-19T05:13:17;16.80;99.90
28823;DHT22;15961;54.678;9.110;2022-08-19T05:15:43;16.80;99.90
28823;DHT22;15961;54.678;9.110;2022-08-19T05:18:09;16.80;99.90
28823;DHT22;15961;54.678;9.110;2022-08-19T05:20:53;16.90;99.90
28823;DHT22;15961;54.678;9.110;2022-08-19T05:23:37;16.80;99.90
28823;DHT22;15961;54.678;9.110;2022-08-19T05:26:03;16.80;99.90
28823;DHT22;15961;54.678;9.110;2022-08-19T05:28:29;16.80;99.90
28823;DHT22;15961;54.678;9.110;2022-08-19T05:30:55;16.80;99.90
28823;DHT22;15961;54.678;9.110;2022-08-19T05:33:21;16.90;99.90
28823;DHT22;15961;54.678;9.110;2022-08-19T05:35:46;16.90;99.90
28823;DHT22;15961;54.678;9.110;2022-08-19T05:38:13;16.80;99.90
28823;DHT22;15961;54.678;9.110;2022-08-19T05:40:39;16.80;99.90
28823;DHT22;15961;54.678;9.110;2022-08-19T05:43:05;16.90;99.90
28823;DHT22;15961;54.678;9.110;2022-08-19T05:45:30;17.00;99.90
28823;DHT22;15961;54.678;9.110;2022-08-19T05:47:56;17.00;99.90
28823;DHT22;15961;54.678;9.110;2022-08-19T05:50:22;16.90;99.90
28823;DHT22;15961;54.678;9.110;2022-08-19T05:52:48;17.00;99.90
28823;DHT22;15961;54.678;9.110;2022-08-19T05:55:13;17.00;99.90
28823;DHT22;15961;54.678;9.110;2022-08-19T05:57:39;17.00;99.90
28823;DHT22;15961;54.678;9.110;2022-08-19T06:00:05;17.00;99.90
28823;DHT22;15961;54.678;9.110;2022-08-19T06:02:34;17.00;99.90
28823;DHT22;15961;54.678;9.110;2022-08-19T06:05:00;17.10;99.90
28823;DHT22;15961;54.678;9.110;2022-08-19T06:07:26;17.10;99.90
28823;DHT22;15961;54.678;9.110;2022-08-19T06:09:54;17.10;99.90
28823;DHT22;15961;54.678;9.110;2022-08-19T06:12:20;17.10;99.90
28823;DHT22;15961;54.678;9.110;2022-08-19T06:14:46;17.00;99.90
28823;DHT22;15961;54.678;9.110;2022-08-19T06:17:11;17.10;99.90
28823;DHT22;15961;54.678;9.110;2022-08-19T06:19:38;17.10;99.90
28823;DHT22;15961;54.678;9.110;2022-08-19T06:22:04;17.00;99.90
28823;DHT22;15961;54.678;9.110;2022-08-19T06:24:31;17.00;99.90
28823;DHT22;15961;54.678;9.110;2022-08-19T06:26:57;17.00;99.90
28823;DHT22;15961;54.678;9.110;2022-08-19T06:29:24;17.10;99.90
28823;DHT22;15961;54.678;9.110;2022-08-19T06:31:50;17.10;99.90
28823;DHT22;15961;54.678;9.110;2022-08-19T06:34:16;17.20;99.90
28823;DHT22;15961;54.678;9.110;2022-08-19T06:36:47;17.10;99.90
28823;DHT22;15961;54.678;9.110;2022-08-19T06:39:15;17.10;99.90
28823;DHT22;15961;54.678;9.110;2022-08-19T06:41:42;17.10;99.90
28823;DHT22;15961;54.678;9.110;2022-08-19T06:44:08;17.10;99.90
28823;DHT22;15961;54.678;9.110;2022-08-19T06:46:33;17.10;99.90
28823;DHT22;15961;54.678;9.110;2022-08-19T06:48:59;17.20;99.90
28823;DHT22;15961;54.678;9.110;2022-08-19T06:51:25;17.10;99.90
28823;DHT22;15961;54.678;9.110;2022-08-19T06:53:51;17.20;99.90
28823;DHT22;15961;54.678;9.110;2022-08-19T06:56:19;17.20;99.90
28823;DHT22;15961;54.678;9.110;2022-08-19T06:58:46;17.20;99.90
28823;DHT22;15961;54.678;9.110;2022-08-19T07:01:12;17.20;99.90
28823;DHT22;15961;54.678;9.110;2022-08-19T07:03:38;17.30;99.90
28823;DHT22;15961;54.678;9.110;2022-08-19T07:06:05;17.30;99.90
28823;DHT22;15961;54.678;9.110;2022-08-19T07:08:32;17.30;99.90
28823;DHT22;15961;54.678;9.110;2022-08-19T07:10:57;17.30;99.90
28823;DHT22;15961;54.678;9.110;2022-08-19T07:13:23;17.40;99.90
28823;DHT22;15961;54.678;9.110;2022-08-19T07:15:49;17.40;99.90
28823;DHT22;15961;54.678;9.110;2022-08-19T07:18:16;17.50;99.90
28823;DHT22;15961;54.678;9.110;2022-08-19T07:20:42;17.50;99.90
28823;DHT22;15961;54.678;9.110;2022-08-19T07:23:08;17.40;99.90
28823;DHT22;15961;54.678;9.110;2022-08-19T07:25:35;17.50;99.90
28823;DHT22;15961;54.678;9.110;2022-08-19T07:28:02;17.60;99.90
28823;DHT22;15961;54.678;9.110;2022-08-19T07:30:28;17.60;99.90
28823;DHT22;15961;54.678;9.110;2022-08-19T07:32:53;17.60;99.90
28823;DHT22;15961;54.678;9.110;2022-08-19T07:35:19;17.60;99.90
28823;DHT22;15961;54.678;9.110;2022-08-19T07:37:44;17.50;99.90
28823;DHT22;15961;54.678;9.110;2022-08-19T07:40:10;17.70;99.90
28823;DHT22;15961;54.678;9.110;2022-08-19T07:42:36;17.80;99.90
28823;DHT22;15961;54.678;9.110;2022-08-19T07:45:02;17.80;99.90
28823;DHT22;15961;54.678;9.110;2022-08-19T07:47:27;17.90;99.90
28823;DHT22;15961;54.678;9.110;2022-08-19T07:49:53;18.10;99.90
28823;DHT22;15961;54.678;9.110;2022-08-19T07:52:19;18.20;99.90
28823;DHT22;15961;54.678;9.110;2022-08-19T07:54:45;18.30;99.90
28823;DHT22;15961;54.678;9.110;2022-08-19T07:57:10;18.40;99.90
28823;DHT22;15961;54.678;9.110;2022-08-19T07:59:36;18.50;99.90
28823;DHT22;15961;54.678;9.110;2022-08-19T08:02:02;18.70;99.90
28823;DHT22;15961;54.678;9.110;2022-08-19T08:04:28;18.90;99.90
28823;DHT22;15961;54.678;9.110;2022-08-19T08:07:12;19.00;99.90
28823;DHT22;15961;54.678;9.110;2022-08-19T08:09:56;19.00;99.90
28823;DHT22;15961;54.678;9.110;2022-08-19T08:12:23;19.10;99.90
28823;DHT22;15961;54.678;9.110;2022-08-19T08:14:52;19.20;99.90
28823;DHT22;15961;54.678;9.110;2022-08-19T08:17:20;19.40;99.90
28823;DHT22;15961;54.678;9.110;2022-08-19T08:19:46;19.50;99.90
28823;DHT22;15961;54.678;9.110;2022-08-19T08:22:14;19.60;99.90
28823;DHT22;15961;54.678;9.110;2022-08-19T08:25:09;19.60;99.90
28823;DHT22;15961;54.678;9.110;2022-08-19T08:27:36;19.60;99.90
28823;DHT22;15961;54.678;9.110;2022-08-19T08:30:02;19.60;99.90
28823;DHT22;15961;54.678;9.110;2022-08-19T08:32:28;19.60;99.90
28823;DHT22;15961;54.678;9.110;2022-08-19T08:34:53;19.70;99.90
28823;DHT22;15961;54.678;9.110;2022-08-19T08:37:19;19.70;99.90
28823;DHT22;15961;54.678;9.110;2022-08-19T08:39:44;19.80;99.90
28823;DHT22;15961;54.678;9.110;2022-08-19T08:42:32;19.90;99.90
28823;DHT22;15961;54.678;9.110;2022-08-19T08:45:03;20.10;99.90
28823;DHT22;15961;54.678;9.110;2022-08-19T08:47:37;20.30;99.90
28823;DHT22;15961;54.678;9.110;2022-08-19T08:50:04;20.40;99.90
28823;DHT22;15961;54.678;9.110;2022-08-19T08:52:36;20.60;99.90
28823;DHT22;15961;54.678;9.110;2022-08-19T08:55:07;20.80;99.90
28823;DHT22;15961;54.678;9.110;2022-08-19T08:57:44;21.00;99.90
28823;DHT22;15961;54.678;9.110;2022-08-19T09:00:26;21.30;99.90
28823;DHT22;15961;54.678;9.110;2022-08-19T09:02:52;21.30;99.90
28823;DHT22;15961;54.678;9.110;2022-08-19T09:05:19;21.40;99.90
28823;DHT22;15961;54.678;9.110;2022-08-19T09:07:50;21.30;99.90
28823;DHT22;15961;54.678;9.110;2022-08-19T09:10:29;21.30;99.90
28823;DHT22;15961;54.678;9.110;2022-08-19T09:15:24;21.30;99.90
28823;DHT22;15961;54.678;9.110;2022-08-19T09:17:52;21.70;99.90
28823;DHT22;15961;54.678;9.110;2022-08-19T09:20:19;22.40;99.90
28823;DHT22;15961;54.678;9.110;2022-08-19T09:22:45;22.90;99.90
28823;DHT22;15961;54.678;9.110;2022-08-19T09:25:12;23.20;99.90
28823;DHT22;15961;54.678;9.110;2022-08-19T09:27:38;23.30;99.90
28823;DHT22;15961;54.678;9.110;2022-08-19T09:30:04;23.10;99.90
28823;DHT22;15961;54.678;9.110;2022-08-19T09:32:30;22.80;99.90
28823;DHT22;15961;54.678;9.110;2022-08-19T09:34:56;22.70;99.90
28823;DHT22;15961;54.678;9.110;2022-08-19T09:37:23;22.50;99.90
28823;DHT22;15961;54.678;9.110;2022-08-19T09:39:49;22.50;99.90
28823;DHT22;15961;54.678;9.110;2022-08-19T09:42:15;22.50;99.90
28823;DHT22;15961;54.678;9.110;2022-08-19T09:44:41;22.50;99.90
28823;DHT22;15961;54.678;9.110;2022-08-19T09:47:07;22.40;99.90
28823;DHT22;15961;54.678;9.110;2022-08-19T09:49:33;22.30;99.90
28823;DHT22;15961;54.678;9.110;2022-08-19T09:51:58;22.20;99.90
28823;DHT22;15961;54.678;9.110;2022-08-19T09:54:24;22.20;99.90
28823;DHT22;15961;54.678;9.110;2022-08-19T09:56:49;22.30;99.90
28823;DHT22;15961;54.678;9.110;2022-08-19T09:59:15;22.40;99.90
28823;DHT22;15961;54.678;9.110;2022-08-19T10:01:41;22.40;99.90
28823;DHT22;15961;54.678;9.110;2022-08-19T10:04:06;22.50;99.90
28823;DHT22;15961;54.678;9.110;2022-08-19T10:06:35;22.60;99.90
28823;DHT22;15961;54.678;9.110;2022-08-19T10:09:02;22.80;99.90
28823;DHT22;15961;54.678;9.110;2022-08-19T10:11:29;22.70;99.90
28823;DHT22;15961;54.678;9.110;2022-08-19T10:13:55;22.50;99.90
28823;DHT22;15961;54.678;9.110;2022-08-19T10:16:21;22.50;99.90
28823;DHT22;15961;54.678;9.110;2022-08-19T10:18:47;22.40;99.90
28823;DHT22;15961;54.678;9.110;2022-08-19T10:21:17;22.30;99.90
28823;DHT22;15961;54.678;9.110;2022-08-19T10:23:43;22.20;99.90
28823;DHT22;15961;54.678;9.110;2022-08-19T10:26:13;22.10;99.90
28823;DHT22;15961;54.678;9.110;2022-08-19T10:28:39;21.90;99.90
28823;DHT22;15961;54.678;9.110;2022-08-19T10:31:08;21.80;99.90
28823;DHT22;15961;54.678;9.110;2022-08-19T10:33:35;21.80;99.90
28823;DHT22;15961;54.678;9.110;2022-08-19T10:36:02;21.80;99.90
28823;DHT22;15961;54.678;9.110;2022-08-19T10:38:27;21.90;99.90
28823;DHT22;15961;54.678;9.110;2022-08-19T10:40:54;21.90;99.90
28823;DHT22;15961;54.678;9.110;2022-08-19T10:43:20;21.80;99.90
28823;DHT22;15961;54.678;9.110;2022-08-19T10:45:51;21.90;99.90
28823;DHT22;15961;54.678;9.110;2022-08-19T10:48:25;22.00;99.90
28823;DHT22;15961;54.678;9.110;2022-08-19T10:50:50;22.20;99.90
28823;DHT22;15961;54.678;9.110;2022-08-19T10:53:35;22.30;99.90
28823;DHT22;15961;54.678;9.110;2022-08-19T10:56:00;22.30;99.90
28823;DHT22;15961;54.678;9.110;2022-08-19T10:58:44;22.70;99.90
28823;DHT22;15961;54.678;9.110;2022-08-19T11:01:09;23.40;99.90
28823;DHT22;15961;54.678;9.110;2022-08-19T11:03:35;23.90;99.90
28823;DHT22;15961;54.678;9.110;2022-08-19T11:06:02;24.30;99.90
28823;DHT22;15961;54.678;9.110;2022-08-19T11:08:27;24.40;99.90
28823;DHT22;15961;54.678;9.110;2022-08-19T11:10:53;24.40;99.90
28823;DHT22;15961;54.678;9.110;2022-08-19T11:13:27;24.60;99.90
28823;DHT22;15961;54.678;9.110;2022-08-19T11:15:59;24.60;99.90
28823;DHT22;15961;54.678;9.110;2022-08-19T11:18:25;24.60;99.90
28823;DHT22;15961;54.678;9.110;2022-08-19T11:20:51;24.40;99.90
28823;DHT22;15961;54.678;9.110;2022-08-19T11:23:16;24.50;99.90
28823;DHT22;15961;54.678;9.110;2022-08-19T11:25:42;24.30;99.90
28823;DHT22;15961;54.678;9.110;2022-08-19T11:28:07;24.20;99.90
28823;DHT22;15961;54.678;9.110;2022-08-19T11:30:32;24.30;99.90
28823;DHT22;15961;54.678;9.110;2022-08-19T11:32:59;24.50;99.90
28823;DHT22;15961;54.678;9.110;2022-08-19T11:35:26;24.50;99.90
28823;DHT22;15961;54.678;9.110;2022-08-19T11:37:51;24.40;99.90
28823;DHT22;15961;54.678;9.110;2022-08-19T11:40:17;24.40;99.90
28823;DHT22;15961;54.678;9.110;2022-08-19T11:42:42;24.50;99.90
28823;DHT22;15961;54.678;9.110;2022-08-19T11:45:20;24.40;99.90
28823;DHT22;15961;54.678;9.110;2022-08-19T11:47:46;24.30;99.90
28823;DHT22;15961;54.678;9.110;2022-08-19T11:50:12;24.40;99.90
28823;DHT22;15961;54.678;9.110;2022-08-19T11:52:38;24.60;99.90
28823;DHT22;15961;54.678;9.110;2022-08-19T11:55:04;24.60;99.90
28823;DHT22;15961;54.678;9.110;2022-08-19T11:57:30;24.60;99.90
28823;DHT22;15961;54.678;9.110;2022-08-19T11:59:56;24.60;99.90
28823;DHT22;15961;54.678;9.110;2022-08-19T12:02:21;24.80;99.90
28823;DHT22;15961;54.678;9.110;2022-08-19T12:04:48;24.90;99.90
28823;DHT22;15961;54.678;9.110;2022-08-19T12:07:14;24.80;99.90
28823;DHT22;15961;54.678;9.110;2022-08-19T12:09:39;24.60;99.90
28823;DHT22;15961;54.678;9.110;2022-08-19T12:12:05;24.30;99.90
28823;DHT22;15961;54.678;9.110;2022-08-19T12:14:31;24.20;99.90
28823;DHT22;15961;54.678;9.110;2022-08-19T12:16:57;24.20;99.90
28823;DHT22;15961;54.678;9.110;2022-08-19T12:19:23;24.00;99.90
28823;DHT22;15961;54.678;9.110;2022-08-19T12:21:50;23.90;99.90
28823;DHT22;15961;54.678;9.110;2022-08-19T12:24:15;23.70;99.90
28823;DHT22;15961;54.678;9.110;2022-08-19T12:26:45;23.60;99.90
28823;DHT22;15961;54.678;9.110;2022-08-19T12:29:11;23.50;99.90
28823;DHT22;15961;54.678;9.110;2022-08-19T12:31:36;23.70;99.90
28823;DHT22;15961;54.678;9.110;2022-08-19T12:34:01;24.00;99.90
28823;DHT22;15961;54.678;9.110;2022-08-19T12:36:27;24.20;99.90
28823;DHT22;15961;54.678;9.110;2022-08-19T12:38:53;24.40;99.90
28823;DHT22;15961;54.678;9.110;2022-08-19T12:41:19;24.50;99.90
28823;DHT22;15961;54.678;9.110;2022-08-19T12:43:46;24.50;99.90
28823;DHT22;15961;54.678;9.110;2022-08-19T12:46:13;24.50;99.90
28823;DHT22;15961;54.678;9.110;2022-08-19T12:48:39;24.60;99.90
28823;DHT22;15961;54.678;9.110;2022-08-19T12:51:11;24.50;99.90
28823;DHT22;15961;54.678;9.110;2022-08-19T12:53:37;25.60;99.90
28823;DHT22;15961;54.678;9.110;2022-08-19T12:56:03;26.90;99.90
28823;DHT22;15961;54.678;9.110;2022-08-19T12:58:28;28.00;99.90
28823;DHT22;15961;54.678;9.110;2022-08-19T13:00:54;28.80;99.90
28823;DHT22;15961;54.678;9.110;2022-08-19T13:03:20;29.00;99.90
28823;DHT22;15961;54.678;9.110;2022-08-19T13:05:47;28.80;99.90
28823;DHT22;15961;54.678;9.110;2022-08-19T13:08:12;28.60;99.90
28823;DHT22;15961;54.678;9.110;2022-08-19T13:10:38;29.00;99.90
28823;DHT22;15961;54.678;9.110;2022-08-19T13:13:05;29.10;99.90
28823;DHT22;15961;54.678;9.110;2022-08-19T13:15:35;28.80;99.90
28823;DHT22;15961;54.678;9.110;2022-08-19T13:18:01;28.60;99.90
28823;DHT22;15961;54.678;9.110;2022-08-19T13:20:26;27.80;99.90
28823;DHT22;15961;54.678;9.110;2022-08-19T13:22:52;27.30;99.90
28823;DHT22;15961;54.678;9.110;2022-08-19T13:25:18;27.00;99.90
28823;DHT22;15961;54.678;9.110;2022-08-19T13:27:45;27.20;99.90
28823;DHT22;15961;54.678;9.110;2022-08-19T13:30:12;27.70;99.90
28823;DHT22;15961;54.678;9.110;2022-08-19T13:32:57;27.70;99.90
28823;DHT22;15961;54.678;9.110;2022-08-19T13:35:40;28.00;99.90
28823;DHT22;15961;54.678;9.110;2022-08-19T13:38:06;28.00;99.90
28823;DHT22;15961;54.678;9.110;2022-08-19T13:40:31;28.10;99.90
28823;DHT22;15961;54.678;9.110;2022-08-19T13:42:58;28.20;99.90
28823;DHT22;15961;54.678;9.110;2022-08-19T13:45:24;27.70;99.90
28823;DHT22;15961;54.678;9.110;2022-08-19T13:47:52;27.20;99.90
28823;DHT22;15961;54.678;9.110;2022-08-19T13:50:23;26.70;99.90
28823;DHT22;15961;54.678;9.110;2022-08-19T13:52:50;25.90;99.90
28823;DHT22;15961;54.678;9.110;2022-08-19T13:55:16;25.60;99.90
28823;DHT22;15961;54.678;9.110;2022-08-19T13:57:41;25.50;99.90
28823;DHT22;15961;54.678;9.110;2022-08-19T14:00:08;25.30;99.90
28823;DHT22;15961;54.678;9.110;2022-08-19T14:02:35;25.00;99.90
28823;DHT22;15961;54.678;9.110;2022-08-19T14:05:03;25.30;99.90
28823;DHT22;15961;54.678;9.110;2022-08-19T14:07:28;26.20;99.90
28823;DHT22;15961;54.678;9.110;2022-08-19T14:09:54;26.60;99.90
28823;DHT22;15961;54.678;9.110;2022-08-19T14:12:19;27.00;99.90
28823;DHT22;15961;54.678;9.110;2022-08-19T14:14:45;27.50;99.90
28823;DHT22;15961;54.678;9.110;2022-08-19T14:17:11;28.20;99.90
28823;DHT22;15961;54.678;9.110;2022-08-19T14:19:37;29.00;99.90
28823;DHT22;15961;54.678;9.110;2022-08-19T14:22:02;29.90;99.90
28823;DHT22;15961;54.678;9.110;2022-08-19T14:24:28;29.40;99.90
28823;DHT22;15961;54.678;9.110;2022-08-19T14:26:54;28.50;99.90
28823;DHT22;15961;54.678;9.110;2022-08-19T14:29:19;28.10;99.90
28823;DHT22;15961;54.678;9.110;2022-08-19T14:31:45;28.10;99.90
28823;DHT22;15961;54.678;9.110;2022-08-19T14:34:10;27.80;99.90
28823;DHT22;15961;54.678;9.110;2022-08-19T14:36:37;27.30;99.90
28823;DHT22;15961;54.678;9.110;2022-08-19T14:39:03;26.70;99.90
28823;DHT22;15961;54.678;9.110;2022-08-19T14:41:29;26.60;99.90
28823;DHT22;15961;54.678;9.110;2022-08-19T14:43:55;26.70;99.90
28823;DHT22;15961;54.678;9.110;2022-08-19T14:46:22;26.90;99.90
28823;DHT22;15961;54.678;9.110;2022-08-19T14:48:48;26.90;99.90
28823;DHT22;15961;54.678;9.110;2022-08-19T14:51:14;26.70;99.90
28823;DHT22;15961;54.678;9.110;2022-08-19T14:53:40;26.70;99.90
28823;DHT22;15961;54.678;9.110;2022-08-19T14:56:07;27.00;99.90
28823;DHT22;15961;54.678;9.110;2022-08-19T14:58:32;27.40;99.90
28823;DHT22;15961;54.678;9.110;2022-08-19T15:00:58;27.80;99.90
28823;DHT22;15961;54.678;9.110;2022-08-19T15:03:24;28.10;99.90
28823;DHT22;15961;54.678;9.110;2022-08-19T15:05:51;28.00;99.90
28823;DHT22;15961;54.678;9.110;2022-08-19T15:08:16;27.70;99.90
28823;DHT22;15961;54.678;9.110;2022-08-19T15:10:42;27.60;99.90
28823;DHT22;15961;54.678;9.110;2022-08-19T15:13:07;27.90;99.90
28823;DHT22;15961;54.678;9.110;2022-08-19T15:15:33;28.50;99.90
28823;DHT22;15961;54.678;9.110;2022-08-19T15:17:58;28.90;99.90
28823;DHT22;15961;54.678;9.110;2022-08-19T15:20:27;29.20;99.90
28823;DHT22;15961;54.678;9.110;2022-08-19T15:22:53;29.00;99.90
28823;DHT22;15961;54.678;9.110;2022-08-19T15:25:19;28.70;99.90
28823;DHT22;15961;54.678;9.110;2022-08-19T15:27:45;28.50;99.90
28823;DHT22;15961;54.678;9.110;2022-08-19T15:30:11;28.40;99.90
28823;DHT22;15961;54.678;9.110;2022-08-19T15:32:37;28.50;99.90